createdAt,value
2023-01-13T00:01:09.897Z,99764.78
2023-01-13T00:04:15.052Z,99761.34
2023-01-13T00:07:21.444Z,99760.44
2023-01-13T00:10:26.547Z,99756.97
2023-01-13T00:13:33.687Z,99756.13
2023-01-13T00:16:38.971Z,99772.13
2023-01-13T00:19:44.739Z,99762.91
2023-01-13T00:22:51.187Z,99766.28
2023-01-13T00:25:58.062Z,99772.16
2023-01-13T00:29:03.352Z,99766.19
2023-01-13T00:32:08.672Z,99771.16
2023-01-13T00:35:14.367Z,99779.69
2023-01-13T00:38:20.909Z,99782.22
2023-01-13T00:41:27.459Z,99782.22
2023-01-13T00:44:31.444Z,99772.03
2023-01-13T00:47:36.504Z,99782.16
2023-01-13T00:50:41.667Z,99783.06
2023-01-13T00:53:50.238Z,99768.72
2023-01-13T00:56:55.296Z,99773.78
2023-01-13T01:00:00.400Z,99778.72
2023-01-13T01:03:09.116Z,99783.75
2023-01-13T01:06:16.199Z,99780.38
2023-01-13T01:09:22.635Z,99777.81
2023-01-13T01:12:30.100Z,99768.50
2023-01-13T01:15:35.207Z,99772.72
2023-01-13T01:18:41.634Z,99771.97
2023-01-13T01:21:46.855Z,99771.56
2023-01-13T01:24:53.569Z,99772.59
2023-01-13T01:27:59.079Z,99775.97
2023-01-13T01:31:08.798Z,99784.38
2023-01-13T01:34:14.080Z,99778.00
2023-01-13T01:37:19.948Z,99779.88
2023-01-13T01:40:27.847Z,99782.63
2023-01-13T01:44:07.079Z,99780.78
2023-01-13T01:47:15.947Z,99780.16
2023-01-13T01:50:21.974Z,99789.44
2023-01-13T01:53:28.643Z,99797.22
2023-01-13T01:56:35.814Z,99800.69
2023-01-13T01:59:41.098Z,99802.69
2023-01-13T02:03:08.083Z,99789.28
2023-01-13T02:06:14.820Z,99786.97
2023-01-13T02:09:20.145Z,99793.59
2023-01-13T02:12:31.887Z,99794.31
2023-01-13T02:15:42.673Z,99793.84
2023-01-13T02:18:55.428Z,99797.22
2023-01-13T02:22:16.928Z,99787.63
2023-01-13T02:25:50.795Z,99796.13
2023-01-13T02:29:27.032Z,99786.75
2023-01-13T02:32:37.255Z,99795.94
2023-01-13T02:35:49.400Z,99782.63
2023-01-13T02:39:01.262Z,99781.72
2023-01-13T02:42:26.388Z,99780.22
2023-01-13T02:45:34.186Z,99786.94
2023-01-13T02:48:42.065Z,99782.72
2023-01-13T02:51:48.121Z,99776.69
2023-01-13T02:54:56.348Z,99778.34
2023-01-13T02:58:03.296Z,99777.66
2023-01-13T03:01:08.723Z,99781.06
2023-01-13T03:04:16.558Z,99787.03
2023-01-13T03:07:46.573Z,99782.84
2023-01-13T03:11:09.746Z,99798.72
2023-01-13T03:14:25.250Z,99801.19
2023-01-13T03:17:37.206Z,99797.06
2023-01-13T03:20:48.841Z,99798.78
2023-01-13T03:23:58.455Z,99798.81
2023-01-13T03:27:07.848Z,99799.63
2023-01-13T03:30:18.665Z,99807.31
2023-01-13T03:33:26.518Z,99800.59
2023-01-13T03:36:34.792Z,99809.94
2023-01-13T03:39:42.612Z,99810.69
2023-01-13T03:43:03.820Z,99805.66
2023-01-13T03:46:13.210Z,99808.28
2023-01-13T03:49:22.505Z,99804.19
2023-01-13T03:52:30.982Z,99815.06
2023-01-13T03:55:38.312Z,99814.19
2023-01-13T03:58:46.234Z,99813.47
2023-01-13T04:01:55.975Z,99816.06
2023-01-13T04:05:03.043Z,99818.63
2023-01-13T04:08:18.027Z,99795.22
2023-01-13T04:11:28.812Z,99796.97
2023-01-13T04:14:34.098Z,99796.94
2023-01-13T04:17:39.507Z,99801.19
2023-01-13T04:20:45.848Z,99790.25
2023-01-13T04:23:52.563Z,99783.66
2023-01-13T04:26:58.236Z,99782.00
2023-01-13T04:30:03.680Z,99783.56
2023-01-13T04:33:08.814Z,99786.09
2023-01-13T04:36:14.077Z,99787.06
2023-01-13T04:39:20.665Z,99787.00
2023-01-13T04:42:25.716Z,99787.88
2023-01-13T04:45:30.824Z,99788.78
2023-01-13T04:48:36.664Z,99792.06
2023-01-13T04:51:41.725Z,99782.00
2023-01-13T04:54:48.270Z,99787.94
2023-01-13T04:57:53.355Z,99797.09
2023-01-13T05:00:58.579Z,99792.91
2023-01-13T05:04:03.696Z,99785.38
2023-01-13T05:07:08.856Z,99789.56
2023-01-13T05:10:16.226Z,99785.44
2023-01-13T05:13:39.208Z,99794.72
2023-01-13T05:17:03.801Z,99804.91
2023-01-13T05:20:10.835Z,99794.84
2023-01-13T05:23:33.519Z,99789.84
2023-01-13T05:26:40.160Z,99787.22
2023-01-13T05:29:45.234Z,99777.06
2023-01-13T05:32:53.136Z,99776.31
2023-01-13T05:35:58.337Z,99793.84
2023-01-13T05:39:03.760Z,99793.00
2023-01-13T05:42:28.785Z,99780.22
2023-01-13T05:45:34.168Z,99776.84
2023-01-13T05:48:41.220Z,99778.47
2023-01-13T05:51:46.604Z,99780.97
2023-01-13T05:54:52.240Z,99763.38
2023-01-13T05:57:58.725Z,99770.91
2023-01-13T06:01:05.708Z,99771.72
2023-01-13T06:04:12.843Z,99765.78
2023-01-13T06:07:17.899Z,99769.88
2023-01-13T06:10:22.999Z,99771.53
2023-01-13T06:13:29.514Z,99753.03
2023-01-13T06:16:34.829Z,99756.41
2023-01-13T06:20:37.100Z,99755.38
2023-01-13T06:23:42.379Z,99751.09
2023-01-13T06:26:47.515Z,99746.03
2023-01-13T06:29:52.883Z,99736.69
2023-01-13T06:33:01.992Z,99736.66
2023-01-13T06:36:14.425Z,99743.22
2023-01-13T06:39:21.980Z,99738.16
2023-01-13T06:42:44.748Z,99740.59
2023-01-13T06:45:51.979Z,99753.09
2023-01-13T06:48:57.122Z,99744.59
2023-01-13T06:52:03.793Z,99740.28
2023-01-13T06:55:09.561Z,99741.88
2023-01-13T06:58:15.099Z,99746.03
2023-01-13T07:01:20.407Z,99726.63
2023-01-13T07:04:25.656Z,99736.69
2023-01-13T07:07:33.683Z,99716.41
2023-01-13T07:10:39.310Z,99724.75
2023-01-13T07:14:02.072Z,99709.56
2023-01-13T07:17:07.243Z,99715.44
2023-01-13T07:20:15.403Z,99711.94
2023-01-13T07:23:21.946Z,99696.72
2023-01-13T07:26:27.266Z,99686.50
2023-01-13T07:29:32.541Z,99697.41
2023-01-13T07:32:37.732Z,99687.22
2023-01-13T07:35:42.855Z,99685.47
2023-01-13T07:38:49.912Z,99687.97
2023-01-13T07:42:12.687Z,99683.72
2023-01-13T07:45:18.981Z,99686.25
2023-01-13T07:48:24.059Z,99683.66
2023-01-13T07:51:29.198Z,99676.03
2023-01-13T07:54:41.120Z,99673.41
2023-01-13T07:57:46.961Z,99675.97
2023-01-13T08:00:52.148Z,99670.00
2023-01-13T08:03:58.623Z,99659.06
2023-01-13T08:07:04.349Z,99663.94
2023-01-13T08:10:12.193Z,99648.03
2023-01-13T08:13:20.106Z,99648.88
2023-01-13T08:16:25.593Z,99642.81
2023-01-13T08:19:30.740Z,99640.25
2023-01-13T08:22:35.945Z,99635.25
2023-01-13T08:25:42.555Z,99618.28
2023-01-13T08:28:47.931Z,99624.94
2023-01-13T08:31:53.244Z,99620.69
2023-01-13T08:34:58.142Z,99613.88
2023-01-13T08:38:03.225Z,99611.34
2023-01-13T08:41:14.601Z,99620.50
2023-01-13T08:44:19.451Z,99626.41
2023-01-13T08:47:25.088Z,99617.91
2023-01-13T08:50:30.326Z,99621.31
2023-01-13T08:53:35.519Z,99617.06
2023-01-13T08:56:43.431Z,99604.44
2023-01-13T08:59:48.981Z,99596.09
2023-01-13T09:02:54.055Z,99592.63
2023-01-13T09:05:59.352Z,99581.66
2023-01-13T09:09:04.697Z,99575.66
2023-01-13T09:12:31.782Z,99565.53
2023-01-13T09:15:36.966Z,99556.22
2023-01-13T09:18:42.200Z,99558.72
2023-01-13T09:21:47.329Z,99551.84
2023-01-13T09:24:52.478Z,99558.59
2023-01-13T09:27:59.166Z,99562.06
2023-01-13T09:31:04.373Z,99556.13
2023-01-13T09:34:43.641Z,99549.31
2023-01-13T09:37:48.662Z,99539.31
2023-01-13T09:40:53.811Z,99551.78
2023-01-13T09:44:00.829Z,99536.69
2023-01-13T09:47:16.400Z,99531.72
2023-01-13T09:50:27.753Z,99540.81
2023-01-13T09:53:35.566Z,99532.31
2023-01-13T09:56:40.855Z,99524.66
2023-01-13T09:59:47.689Z,99511.88
2023-01-13T10:03:11.881Z,99520.34
2023-01-13T10:06:21.127Z,99502.50
2023-01-13T10:09:31.510Z,99488.84
2023-01-13T10:12:54.421Z,99503.03
2023-01-13T10:16:20.120Z,99491.94
2023-01-13T10:19:29.373Z,99487.75
2023-01-13T10:22:52.044Z,99477.50
2023-01-13T10:26:03.174Z,99475.72
2023-01-13T10:29:24.961Z,99472.22
2023-01-13T10:32:31.861Z,99470.31
2023-01-13T10:35:59.565Z,99466.94
2023-01-13T10:39:10.802Z,99470.25
2023-01-13T10:42:17.759Z,99476.13
2023-01-13T10:45:27.070Z,99478.56
2023-01-13T10:48:42.356Z,99485.25
2023-01-13T10:51:50.516Z,99471.59
2023-01-13T10:54:56.256Z,99465.59
2023-01-13T10:58:14.406Z,99463.84
2023-01-13T11:01:26.956Z,99467.13
2023-01-13T11:04:36.693Z,99465.25
2023-01-13T11:07:43.135Z,99474.53
2023-01-13T11:10:51.014Z,99476.94
2023-01-13T11:14:15.330Z,99478.47
2023-01-13T11:17:32.837Z,99475.22
2023-01-13T11:20:42.297Z,99465.00
2023-01-13T11:23:50.514Z,99463.16
2023-01-13T11:26:58.649Z,99458.50
2023-01-13T11:30:11.361Z,99462.56
2023-01-13T11:33:44.342Z,99456.22
2023-01-13T11:36:54.026Z,99446.75
2023-01-13T11:40:05.375Z,99456.91
2023-01-13T11:43:19.252Z,99449.06
2023-01-13T11:46:27.432Z,99453.94
2023-01-13T11:49:34.690Z,99457.50
2023-01-13T11:53:08.868Z,99469.25
2023-01-13T11:56:38.247Z,99453.09
2023-01-13T12:00:09.143Z,99459.22
2023-01-13T12:03:30.991Z,99457.09
2023-01-13T12:06:37.691Z,99446.50
2023-01-13T12:09:57.510Z,99464.47
2023-01-13T12:13:09.210Z,99461.38
2023-01-13T12:16:23.964Z,99474.56
2023-01-13T12:19:30.526Z,99473.50
2023-01-13T12:22:36.918Z,99482.75
2023-01-13T12:25:46.959Z,99485.16
2023-01-13T12:28:56.644Z,99483.97
2023-01-13T12:32:03.428Z,99484.97
2023-01-13T12:35:23.756Z,99485.59
2023-01-13T12:38:36.545Z,99484.00
2023-01-13T12:42:02.199Z,99494.19
2023-01-13T12:45:19.473Z,99482.50
2023-01-13T12:48:46.549Z,99488.94
2023-01-13T12:52:14.050Z,99485.09
2023-01-13T12:55:22.995Z,99491.06
2023-01-13T12:58:30.349Z,99488.81
2023-01-13T13:01:37.563Z,99495.25
2023-01-13T13:04:49.929Z,99488.22
2023-01-13T13:08:05.917Z,99496.81
2023-01-13T13:11:58.071Z,99497.97
2023-01-13T13:15:19.437Z,99508.84
2023-01-13T13:18:28.332Z,99516.44
2023-01-13T13:22:23.767Z,99524.38
2023-01-13T13:25:29.419Z,99515.63
2023-01-13T13:28:37.731Z,99519.75
2023-01-13T13:32:26.028Z,99517.28
2023-01-13T13:35:53.857Z,99521.25
2023-01-13T13:39:29.510Z,99527.72
2023-01-13T13:42:56.355Z,99533.53
2023-01-13T13:46:20.099Z,99532.63
2023-01-13T13:49:40.495Z,99547.16
2023-01-13T13:52:51.860Z,99550.31
2023-01-13T13:55:59.667Z,99555.50
2023-01-13T13:59:06.063Z,99552.13
2023-01-13T14:02:18.915Z,99550.31
2023-01-13T14:05:30.321Z,99548.84
2023-01-13T14:08:37.748Z,99542.91
2023-01-13T14:11:43.362Z,99549.50
2023-01-13T14:14:49.419Z,99563.00
2023-01-13T14:17:54.967Z,99553.94
2023-01-13T14:21:03.928Z,99556.25
2023-01-13T14:24:21.127Z,99557.91
2023-01-13T14:27:28.652Z,99558.06
2023-01-13T14:30:34.923Z,99558.94
2023-01-13T14:33:41.510Z,99558.81
2023-01-13T14:36:51.224Z,99566.22
2023-01-13T14:39:56.566Z,99574.78
2023-01-13T14:43:01.804Z,99575.72
2023-01-13T14:46:07.270Z,99573.88
2023-01-13T14:49:24.224Z,99571.41
2023-01-13T14:52:34.182Z,99570.53
2023-01-13T14:55:40.892Z,99575.69
2023-01-13T14:58:46.090Z,99577.28
2023-01-13T15:01:52.504Z,99583.09
2023-01-13T15:04:59.238Z,99583.31
2023-01-13T15:08:10.015Z,99582.53
2023-01-13T15:11:25.207Z,99583.06
2023-01-13T15:14:33.835Z,99587.03
2023-01-13T15:17:38.980Z,99582.16
2023-01-13T15:20:44.733Z,99594.97
2023-01-13T15:23:51.129Z,99595.03
2023-01-13T15:26:56.525Z,99586.47
2023-01-13T15:30:01.668Z,99596.88
2023-01-13T15:33:07.577Z,99597.72
2023-01-13T15:36:23.461Z,99589.34
2023-01-13T15:39:30.029Z,99594.25
2023-01-13T15:43:04.188Z,99597.53
2023-01-13T15:46:33.938Z,99600.22
2023-01-13T15:49:41.730Z,99602.72
2023-01-13T15:52:46.919Z,99605.16
2023-01-13T15:55:55.022Z,99597.31
2023-01-13T15:59:00.180Z,99597.28
2023-01-13T16:02:05.224Z,99601.38
2023-01-13T16:05:13.375Z,99617.38
2023-01-13T16:08:19.440Z,99614.22
2023-01-13T16:11:27.735Z,99613.22
2023-01-13T16:14:32.953Z,99621.00
2023-01-13T16:17:38.349Z,99621.78
2023-01-13T16:20:43.841Z,99620.97
2023-01-13T16:23:49.400Z,99623.44
2023-01-13T16:26:56.045Z,99633.44
2023-01-13T16:30:01.391Z,99622.53
2023-01-13T16:33:06.640Z,99618.13
2023-01-13T16:36:16.250Z,99625.72
2023-01-13T16:39:22.833Z,99626.56
2023-01-13T16:42:29.392Z,99623.19
2023-01-13T16:45:35.093Z,99620.75
2023-01-13T16:48:40.224Z,99630.78
2023-01-13T16:51:45.670Z,99640.00
2023-01-13T16:54:50.865Z,99625.72
2023-01-13T16:57:57.485Z,99640.00
2023-01-13T17:01:02.720Z,99639.03
2023-01-13T17:04:08.836Z,99642.50
2023-01-13T17:07:17.758Z,99641.72
2023-01-13T17:10:24.417Z,99647.50
2023-01-13T17:13:30.989Z,99637.25
2023-01-13T17:16:35.946Z,99628.94
2023-01-13T17:19:43.710Z,99628.06
2023-01-13T17:22:57.707Z,99634.09
2023-01-13T17:26:03.393Z,99644.19
2023-01-13T17:29:13.392Z,99645.94
2023-01-13T17:32:19.315Z,99643.25
2023-01-13T17:35:25.434Z,99640.00
2023-01-13T17:38:30.670Z,99643.19
2023-01-13T17:41:35.744Z,99651.63
2023-01-13T17:44:42.277Z,99643.34
2023-01-13T17:47:47.662Z,99647.50
2023-01-13T17:50:53.483Z,99651.75
2023-01-13T17:54:01.581Z,99647.53
2023-01-13T17:57:06.772Z,99644.88
2023-01-13T18:00:16.284Z,99643.53
2023-01-13T18:03:24.482Z,99649.41
2023-01-13T18:06:30.092Z,99652.78
2023-01-13T18:09:35.510Z,99634.16
2023-01-13T18:12:43.956Z,99644.34
2023-01-13T18:15:50.260Z,99639.66
2023-01-13T18:19:16.275Z,99634.66
2023-01-13T18:22:39.473Z,99644.13
2023-01-13T18:26:02.277Z,99648.16
2023-01-13T18:29:07.941Z,99642.97
2023-01-13T18:32:16.360Z,99642.97
2023-01-13T18:35:21.735Z,99642.50
2023-01-13T18:38:26.928Z,99642.47
2023-01-13T18:41:49.531Z,99642.56
2023-01-13T18:44:56.150Z,99645.78
2023-01-13T18:48:03.816Z,99651.81
2023-01-13T18:51:08.986Z,99641.44
2023-01-13T18:54:14.331Z,99649.06
2023-01-13T18:57:21.406Z,99643.28
2023-01-13T19:00:27.515Z,99643.94
2023-01-13T19:03:34.091Z,99650.63
2023-01-13T19:06:47.937Z,99641.44
2023-01-13T19:09:52.789Z,99647.19
2023-01-13T19:12:58.284Z,99646.59
2023-01-13T19:16:06.986Z,99637.03
2023-01-13T19:19:14.529Z,99647.78
2023-01-13T19:22:22.556Z,99642.84
2023-01-13T19:25:27.893Z,99647.84
2023-01-13T19:28:33.465Z,99650.16
2023-01-13T19:31:39.219Z,99643.38
2023-01-13T19:34:47.796Z,99649.56
2023-01-13T19:37:54.003Z,99651.84
2023-01-13T19:41:00.740Z,99646.09
2023-01-13T19:44:23.705Z,99654.38
2023-01-13T19:47:28.774Z,99644.03
2023-01-13T19:50:38.533Z,99652.56
2023-01-13T19:53:44.173Z,99656.06
2023-01-13T19:56:49.737Z,99661.25
2023-01-13T19:59:54.844Z,99667.94
2023-01-13T20:03:03.524Z,99656.06
2023-01-13T20:06:11.125Z,99656.94
2023-01-13T20:09:16.393Z,99664.63
2023-01-13T20:12:21.751Z,99656.94
2023-01-13T20:15:27.196Z,99655.00
2023-01-13T20:18:36.613Z,99662.00
2023-01-13T20:21:46.018Z,99659.38
2023-01-13T20:24:55.168Z,99657.03
2023-01-13T20:28:02.223Z,99658.69
2023-01-13T20:31:09.745Z,99652.72
2023-01-13T20:34:15.838Z,99664.44
2023-01-13T20:37:22.778Z,99657.72
2023-01-13T20:40:28.226Z,99661.06
2023-01-13T20:43:32.405Z,99660.28
2023-01-13T20:46:37.781Z,99664.78
2023-01-13T20:49:42.847Z,99662.09
2023-01-13T20:52:49.919Z,99664.69
2023-01-13T20:55:55.021Z,99670.66
2023-01-13T20:59:00.213Z,99674.13
2023-01-13T21:02:05.804Z,99681.66
2023-01-13T21:05:13.253Z,99680.00
2023-01-13T21:08:19.712Z,99674.06
2023-01-13T21:11:40.266Z,99675.75
2023-01-13T21:15:02.911Z,99674.84
2023-01-13T21:18:25.911Z,99678.31
2023-01-13T21:21:31.078Z,99669.09
2023-01-13T21:24:37.557Z,99677.66
2023-01-13T21:27:44.065Z,99670.13
2023-01-13T21:30:50.105Z,99665.84
2023-01-13T21:33:55.529Z,99656.53
2023-01-13T21:37:01.053Z,99653.25
2023-01-13T21:40:10.209Z,99658.38
2023-01-13T21:43:32.826Z,99655.72
2023-01-13T21:46:54.957Z,99648.31
2023-01-13T21:50:00.665Z,99651.66
2023-01-13T21:53:07.391Z,99646.66
2023-01-13T21:56:14.610Z,99649.91
2023-01-13T21:59:19.951Z,99649.00
2023-01-13T22:02:33.049Z,99654.91
2023-01-13T22:05:38.533Z,99645.06
2023-01-13T22:08:46.273Z,99647.38
2023-01-13T22:11:52.635Z,99644.16
2023-01-13T22:14:58.256Z,99648.25
2023-01-13T22:18:05.338Z,99624.50
2023-01-13T22:21:13.601Z,99622.28
2023-01-13T22:24:18.729Z,99627.84
2023-01-13T22:27:26.399Z,99627.03
2023-01-13T22:30:32.597Z,99633.75
2023-01-13T22:33:37.837Z,99621.06
2023-01-13T22:36:43.045Z,99621.91
2023-01-13T22:39:48.230Z,99622.72
2023-01-13T22:42:54.625Z,99623.78
2023-01-13T22:46:00.945Z,99626.34
2023-01-13T22:49:06.056Z,99624.53
2023-01-13T22:52:12.425Z,99620.31
2023-01-13T22:55:18.067Z,99629.50
2023-01-13T22:58:24.878Z,99612.72
2023-01-13T23:01:31.344Z,99616.91
2023-01-13T23:04:36.527Z,99614.22
2023-01-13T23:07:41.839Z,99621.00
2023-01-13T23:10:47.035Z,99617.63
2023-01-13T23:13:57.695Z,99618.38
2023-01-13T23:17:02.924Z,99611.78
2023-01-13T23:20:08.343Z,99620.13
2023-01-13T23:23:14.242Z,99611.63
2023-01-13T23:26:19.574Z,99617.59
2023-01-13T23:29:26.061Z,99620.13
2023-01-13T23:32:31.344Z,99621.00
2023-01-13T23:35:36.903Z,99620.16
2023-01-13T23:38:42.469Z,99615.84
2023-01-13T23:41:47.714Z,99615.72
2023-01-13T23:44:54.205Z,99605.56
2023-01-13T23:47:59.337Z,99613.28
2023-01-13T23:51:06.727Z,99614.16
2023-01-13T23:54:11.905Z,99608.22
2023-01-13T23:57:17.136Z,99601.47
